Time;durP1;ratioP1;P1;durP2;ratioP2;P2;SDS_P1;SDS_P2;PMS_P1;PMS_P2;Temp;Humidity;BMP_temperature;BMP_pressure;BME280_temperature;BME280_humidity;BME280_pressure;Samples;Min_cycle;Max_cycle;Signal;HPM_P1;HPM_P2
2022/08/26 00:01:24;;;;;;;1.30;1.10;;;16.00;99.90;;;;;;6158087;23;20024;-89
2022/08/26 00:03:55;;;;;;;1.70;1.40;;;15.90;99.90;;;;;;6159555;23;20017;-88
2022/08/26 00:06:23;;;;;;;1.60;1.48;;;15.90;99.90;;;;;;6155534;23;20050;-88
2022/08/26 00:08:51;;;;;;;1.63;1.20;;;15.80;99.90;;;;;;6154716;23;20032;-93
2022/08/26 00:11:18;;;;;;;1.55;1.40;;;15.80;99.90;;;;;;6155591;23;20076;-92
2022/08/26 00:13:54;;;;;;;1.17;1.00;;;15.70;99.90;;;;;;6162267;23;20020;-89
2022/08/26 00:16:23;;;;;;;1.30;1.20;;;15.70;99.90;;;;;;6167132;23;20025;-90
2022/08/26 00:18:51;;;;;;;1.63;1.27;;;15.70;99.90;;;;;;6168639;23;20036;-87
2022/08/26 00:21:18;;;;;;;1.60;1.48;;;15.70;99.90;;;;;;6167523;23;20020;-89
2022/08/26 00:23:45;;;;;;;1.63;1.20;;;15.60;99.90;;;;;;6170427;23;20031;-92
2022/08/26 00:26:12;;;;;;;1.20;0.90;;;15.60;99.90;;;;;;6164204;23;20078;-91
2022/08/26 00:28:39;;;;;;;1.55;1.05;;;15.60;99.90;;;;;;6159933;23;20120;-92
2022/08/26 00:31:07;;;;;;;1.27;1.17;;;15.60;99.90;;;;;;6161266;23;20017;-90
2022/08/26 00:33:38;;;;;;;1.30;0.98;;;15.50;99.90;;;;;;6162833;23;20031;-91
2022/08/26 00:36:06;;;;;;;1.27;1.17;;;15.50;99.90;;;;;;6160608;23;20026;-90
2022/08/26 00:38:34;;;;;;;1.55;1.20;;;15.50;99.90;;;;;;6159122;23;20025;-92
2022/08/26 00:41:03;;;;;;;1.13;1.00;;;15.40;99.90;;;;;;6161118;23;20024;-92
2022/08/26 00:43:32;;;;;;;2.00;1.42;;;15.40;99.90;;;;;;6185037;23;20021;-89
2022/08/26 00:46:28;;;;;;;1.60;1.50;;;15.30;99.90;;;;;;6168652;23;20020;-94
2022/08/26 00:49:02;;;;;;;1.17;1.00;;;15.30;99.90;;;;;;6162418;23;20021;-91
2022/08/26 00:51:49;;;;;;;1.27;1.05;;;15.30;99.90;;;;;;6165851;23;20032;-91
2022/08/26 00:54:17;;;;;;;1.25;1.00;;;15.30;99.90;;;;;;6188210;23;20016;-91
2022/08/26 00:57:05;;;;;;;1.17;1.08;;;15.30;99.90;;;;;;6161714;23;20451;-93
2022/08/26 00:59:46;;;;;;;1.27;1.10;;;15.30;99.90;;;;;;6165715;23;20021;-92
2022/08/26 01:02:14;;;;;;;1.35;1.10;;;15.40;99.90;;;;;;6161735;23;20448;-91
2022/08/26 01:04:51;;;;;;;1.40;1.20;;;15.40;99.90;;;;;;6163999;23;20021;-92
2022/08/26 01:07:26;;;;;;;1.50;1.40;;;15.40;99.90;;;;;;6162176;23;20284;-90
2022/08/26 01:09:58;;;;;;;1.58;1.30;;;15.40;99.90;;;;;;6162476;23;20025;-90
2022/08/26 01:12:26;;;;;;;1.38;1.05;;;15.40;99.90;;;;;;6162898;23;20013;-89
2022/08/26 01:15:14;;;;;;;1.88;1.48;;;15.40;99.90;;;;;;6168887;23;20023;-88
2022/08/26 01:17:58;;;;;;;1.92;1.52;;;15.40;99.90;;;;;;6176684;23;20478;-88
2022/08/26 01:21:06;;;;;;;1.50;1.23;;;15.40;99.90;;;;;;6175493;23;20075;-89
2022/08/26 01:23:40;;;;;;;1.70;1.50;;;15.40;99.90;;;;;;6163123;23;20069;-87
2022/08/26 01:26:34;;;;;;;1.50;1.30;;;15.40;99.90;;;;;;6170845;23;20021;-88
2022/08/26 01:29:02;;;;;;;1.55;1.30;;;15.40;99.90;;;;;;6211554;23;20027;-87
2022/08/26 01:34:30;;;;;;;2.05;1.65;;;15.30;99.90;;;;;;6169745;22;20036;-86
2022/08/26 01:37:01;;;;;;;1.92;1.50;;;15.40;99.90;;;;;;6142558;23;20055;-87
2022/08/26 01:39:33;;;;;;;2.15;1.75;;;15.30;99.90;;;;;;6186188;23;20016;-86
2022/08/26 01:42:06;;;;;;;1.58;1.40;;;15.40;99.90;;;;;;6186899;23;20103;-87
2022/08/26 01:45:00;;;;;;;1.65;1.40;;;15.30;99.90;;;;;;6164657;23;20032;-86
2022/08/26 01:47:30;;;;;;;1.75;1.50;;;15.30;99.90;;;;;;6162046;23;20090;-87
2022/08/26 01:50:01;;;;;;;1.58;1.38;;;15.20;99.90;;;;;;6136962;23;20020;-87
2022/08/26 01:52:30;;;;;;;1.80;1.45;;;15.20;99.90;;;;;;6138639;23;20044;-87
2022/08/26 01:54:57;;;;;;;1.58;1.40;;;15.10;99.90;;;;;;6137418;23;20017;-86
2022/08/26 01:57:28;;;;;;;1.63;1.45;;;15.00;99.90;;;;;;6140210;23;20079;-87
2022/08/26 01:59:56;;;;;;;2.28;1.65;;;15.00;99.90;;;;;;6137672;23;20056;-87
2022/08/26 02:02:24;;;;;;;1.58;1.40;;;15.00;99.90;;;;;;6185504;23;20042;-87
2022/08/26 02:04:56;;;;;;;1.92;1.70;;;14.90;99.90;;;;;;6136156;23;20021;-87
2022/08/26 02:07:23;;;;;;;1.50;1.40;;;14.90;99.90;;;;;;6162164;23;20020;-86
2022/08/26 02:09:55;;;;;;;2.13;1.83;;;14.90;99.90;;;;;;6139910;23;20432;-87
2022/08/26 02:12:28;;;;;;;1.23;1.05;;;14.90;99.90;;;;;;6164295;23;20523;-87
2022/08/26 02:15:01;;;;;;;1.90;1.60;;;14.80;99.90;;;;;;6164619;23;20048;-87
2022/08/26 02:17:38;;;;;;;1.80;1.50;;;14.80;99.90;;;;;;6191758;23;20018;-85
2022/08/26 02:20:18;;;;;;;1.65;1.55;;;14.80;99.90;;;;;;6175639;23;20021;-87
2022/08/26 02:23:05;;;;;;;1.95;1.60;;;14.70;99.90;;;;;;6204475;23;20056;-88
2022/08/26 02:25:46;;;;;;;1.67;1.45;;;14.70;99.90;;;;;;6204874;23;20013;-88
2022/08/26 02:28:16;;;;;;;1.85;1.50;;;14.70;99.90;;;;;;6156254;23;20027;-85
2022/08/26 02:30:47;;;;;;;1.27;1.15;;;14.60;99.90;;;;;;6177978;23;20135;-87
2022/08/26 02:33:16;;;;;;;1.50;1.30;;;14.60;99.90;;;;;;6177028;23;20021;-87
2022/08/26 02:35:48;;;;;;;1.92;1.67;;;14.50;99.90;;;;;;6160185;23;20023;-84
2022/08/26 02:38:26;;;;;;;1.90;1.58;;;14.50;99.90;;;;;;6160233;23;20024;-87
2022/08/26 02:40:55;;;;;;;1.67;1.20;;;14.40;99.90;;;;;;6183096;23;20336;-86
2022/08/26 02:43:26;;;;;;;1.95;1.42;;;14.40;99.90;;;;;;6184007;23;20028;-86
2022/08/26 02:46:04;;;;;;;1.73;1.27;;;14.40;99.90;;;;;;6209449;23;20075;-87
2022/08/26 02:48:37;;;;;;;1.65;1.48;;;14.30;99.90;;;;;;6209488;23;20097;-87
2022/08/26 02:51:10;;;;;;;1.70;1.40;;;14.30;99.90;;;;;;6162980;23;20055;-86
2022/08/26 02:53:41;;;;;;;1.60;1.40;;;14.30;99.90;;;;;;6157774;23;20020;-86
2022/08/26 02:56:08;;;;;;;1.70;1.30;;;14.30;99.90;;;;;;6153121;23;20031;-86
2022/08/26 02:58:37;;;;;;;1.40;1.20;;;14.30;99.90;;;;;;6157115;23;20020;-87
2022/08/26 03:01:24;;;;;;;1.20;1.10;;;14.30;99.90;;;;;;6161200;23;20040;-86
2022/08/26 03:03:52;;;;;;;1.38;1.23;;;14.30;99.90;;;;;;6159859;23;20048;-86
2022/08/26 03:06:23;;;;;;;1.70;1.33;;;14.20;99.90;;;;;;6159452;23;20024;-87
2022/08/26 03:08:54;;;;;;;1.67;1.40;;;14.20;99.90;;;;;;6182929;23;20028;-85
2022/08/26 03:11:30;;;;;;;1.60;1.30;;;14.20;99.90;;;;;;6187454;23;20115;-87
2022/08/26 03:14:02;;;;;;;1.60;1.40;;;14.20;99.90;;;;;;6208458;23;20030;-87
2022/08/26 03:16:41;;;;;;;1.50;1.20;;;14.10;99.90;;;;;;6190351;23;20033;-85
2022/08/26 03:19:09;;;;;;;1.60;1.27;;;14.10;99.90;;;;;;6159881;23;20017;-87
2022/08/26 03:21:44;;;;;;;1.83;1.25;;;14.10;99.90;;;;;;6164123;23;20034;-87
2022/08/26 03:24:16;;;;;;;1.50;1.15;;;14.10;99.90;;;;;;6155478;23;20223;-87
2022/08/26 03:26:45;;;;;;;1.38;1.17;;;14.00;99.90;;;;;;6142886;23;20020;-88
2022/08/26 03:32:08;;;;;;;1.20;1.00;;;14.00;99.90;;;;;;6194534;23;20060;-86
2022/08/26 03:34:38;;;;;;;1.77;1.38;;;13.90;99.90;;;;;;6210613;23;20020;-85
2022/08/26 03:37:06;;;;;;;1.42;1.20;;;13.90;99.90;;;;;;6162325;23;20036;-84
2022/08/26 03:39:36;;;;;;;1.45;1.10;;;13.90;99.90;;;;;;6165171;23;20024;-86
2022/08/26 03:42:11;;;;;;;1.27;1.10;;;13.90;99.90;;;;;;6164934;23;20011;-85
2022/08/26 03:44:44;;;;;;;2.35;1.58;;;13.80;99.90;;;;;;6213609;23;20025;-85
2022/08/26 03:47:19;;;;;;;1.40;1.20;;;13.80;99.90;;;;;;6191317;22;20069;-86
2022/08/26 03:50:32;;;;;;;2.40;1.02;;;13.80;99.90;;;;;;6193747;22;20028;-86
2022/08/26 03:53:03;;;;;;;1.35;0.93;;;13.80;99.90;;;;;;6213280;22;20027;-86
2022/08/26 03:55:34;;;;;;;1.40;1.00;;;13.80;99.90;;;;;;6201460;23;20048;-86
2022/08/26 03:58:14;;;;;;;1.75;1.13;;;13.70;99.90;;;;;;6201935;23;20033;-86
2022/08/26 04:00:50;;;;;;;1.92;1.30;;;13.80;99.90;;;;;;6200760;23;20040;-85
2022/08/26 04:06:15;;;;;;;1.48;1.10;;;13.70;99.90;;;;;;6178983;23;20031;-85
2022/08/26 04:08:44;;;;;;;1.27;1.17;;;13.60;99.90;;;;;;6145551;23;20100;-87
2022/08/26 04:11:23;;;;;;;1.73;1.30;;;13.60;99.90;;;;;;6146448;23;20025;-87
2022/08/26 04:13:52;;;;;;;1.45;1.20;;;13.60;99.90;;;;;;6146690;23;20017;-87
2022/08/26 04:16:19;;;;;;;1.10;0.98;;;13.60;99.90;;;;;;6144232;23;20024;-86
2022/08/26 04:18:48;;;;;;;1.10;1.00;;;13.50;99.90;;;;;;6145345;23;20127;-87
2022/08/26 04:21:25;;;;;;;1.33;1.02;;;13.60;99.90;;;;;;6154358;23;20028;-87
2022/08/26 04:23:58;;;;;;;1.20;0.98;;;13.50;99.90;;;;;;6200031;23;20028;-87
2022/08/26 04:26:35;;;;;;;1.63;1.30;;;13.50;99.90;;;;;;6202005;23;20068;-86
2022/08/26 04:29:22;;;;;;;1.40;1.20;;;13.50;99.90;;;;;;6206608;23;20020;-87
2022/08/26 04:31:59;;;;;;;1.55;1.15;;;13.50;99.90;;;;;;6200133;23;20017;-86
2022/08/26 04:34:29;;;;;;;1.30;1.05;;;13.50;99.90;;;;;;6195638;23;20009;-90
2022/08/26 04:36:58;;;;;;;1.05;0.90;;;13.40;99.90;;;;;;6196916;23;20075;-85
2022/08/26 04:39:35;;;;;;;1.48;1.38;;;13.40;99.90;;;;;;6163556;23;20021;-92
2022/08/26 04:42:16;;;;;;;1.33;1.08;;;13.30;99.90;;;;;;6143888;23;20037;-84
2022/08/26 04:44:54;;;;;;;1.60;1.27;;;13.30;99.90;;;;;;6175551;23;20052;-86
2022/08/26 04:47:37;;;;;;;1.60;1.10;;;13.20;99.90;;;;;;6193762;23;20294;-86
2022/08/26 04:50:10;;;;;;;1.25;1.15;;;13.20;99.90;;;;;;6195517;23;20080;-86
2022/08/26 04:52:38;;;;;;;;;;;13.30;99.90;;;;;;6195197;23;20077;-86
2022/08/26 04:55:09;;;;;;;1.38;1.17;;;13.20;99.90;;;;;;6195470;23;19966;-86
2022/08/26 04:57:51;;;;;;;1.75;1.30;;;13.20;99.90;;;;;;6190368;23;20475;-86
2022/08/26 05:00:20;;;;;;;1.70;1.20;;;13.10;99.90;;;;;;6190468;23;20021;-89
2022/08/26 05:02:55;;;;;;;1.17;1.07;;;13.10;99.90;;;;;;6169683;23;20017;-86
2022/08/26 05:05:27;;;;;;;1.58;1.27;;;13.10;99.90;;;;;;6214412;23;20266;-87
2022/08/26 05:07:55;;;;;;;1.52;1.17;;;13.10;99.90;;;;;;6166597;23;20496;-91
2022/08/26 05:10:24;;;;;;;1.63;1.50;;;13.10;99.90;;;;;;6168350;23;20025;-90
2022/08/26 05:12:59;;;;;;;1.70;1.38;;;13.10;99.90;;;;;;6192566;23;20032;-88
2022/08/26 05:24:06;;;;;;;1.58;1.30;;;13.20;99.90;;;;;;6146267;23;20039;-84
2022/08/26 05:26:33;;;;;;;1.55;1.40;;;13.20;99.90;;;;;;6120457;23;20025;-83
2022/08/26 05:29:00;;;;;;;2.03;1.33;;;13.30;99.90;;;;;;6096689;23;20029;-83
2022/08/26 05:31:30;;;;;;;1.50;1.10;;;13.40;99.90;;;;;;6096940;23;20026;-84
2022/08/26 05:33:57;;;;;;;1.52;1.30;;;13.40;99.90;;;;;;6122455;23;20444;-84
2022/08/26 05:36:26;;;;;;;1.55;1.35;;;13.50;99.90;;;;;;6146967;23;20097;-84
2022/08/26 05:38:54;;;;;;;2.65;1.60;;;13.60;99.90;;;;;;6097388;23;20076;-82
2022/08/26 05:41:27;;;;;;;2.17;1.85;;;13.70;99.90;;;;;;6097949;23;20326;-85
2022/08/26 05:44:03;;;;;;;1.58;1.42;;;13.80;99.90;;;;;;6101634;23;20104;-84
2022/08/26 05:46:30;;;;;;;1.98;1.58;;;13.90;99.90;;;;;;6142162;23;20025;-84
2022/08/26 05:48:58;;;;;;;1.58;1.33;;;13.90;99.90;;;;;;6098058;23;20617;-84
2022/08/26 05:51:26;;;;;;;2.10;1.67;;;14.00;99.90;;;;;;6098530;23;20076;-83
2022/08/26 05:53:56;;;;;;;1.70;1.60;;;14.00;99.90;;;;;;6099247;23;20025;-83
2022/08/26 05:56:24;;;;;;;1.63;1.52;;;14.10;99.90;;;;;;6097181;23;20018;-84
2022/08/26 05:58:52;;;;;;;2.08;1.73;;;14.10;99.90;;;;;;6095329;23;20022;-82
2022/08/26 06:01:21;;;;;;;1.50;1.40;;;14.20;99.90;;;;;;6097644;23;20041;-84
2022/08/26 06:03:50;;;;;;;1.33;1.23;;;14.20;99.90;;;;;;6097478;23;20033;-83
2022/08/26 06:06:19;;;;;;;1.67;1.30;;;14.20;99.90;;;;;;6095217;23;20025;-86
2022/08/26 06:09:18;;;;;;;1.60;1.50;;;14.30;99.90;;;;;;6095690;23;20021;-83
2022/08/26 06:12:14;;;;;;;1.83;1.45;;;14.30;99.90;;;;;;6099828;23;20132;-83
2022/08/26 06:14:54;;;;;;;1.50;1.27;;;14.40;99.90;;;;;;6098657;23;20021;-83
2022/08/26 06:18:29;;;;;;;;;;;;;;;;;;;;;
2022/08/26 06:25:43;;;;;;;1.20;1.10;;;14.60;99.90;;;;;;6142297;23;20033;-84
2022/08/26 06:28:55;;;;;;;1.15;0.93;;;14.60;99.90;;;;;;6121884;23;20045;-87
2022/08/26 06:31:50;;;;;;;1.23;1.13;;;14.70;99.90;;;;;;6108546;23;20025;-82
2022/08/26 06:34:17;;;;;;;1.55;1.40;;;14.80;99.90;;;;;;6092654;23;20484;-82
2022/08/26 06:36:46;;;;;;;1.70;1.40;;;14.80;99.90;;;;;;6112908;23;20025;-81
2022/08/26 06:39:14;;;;;;;1.30;1.10;;;14.80;99.90;;;;;;6091394;23;20438;-82
2022/08/26 06:41:44;;;;;;;1.20;1.10;;;14.80;99.90;;;;;;6091910;23;20029;-81
2022/08/26 06:44:20;;;;;;;1.60;1.30;;;14.90;99.90;;;;;;6090073;23;20021;-84
2022/08/26 06:50:25;;;;;;;1.10;1.00;;;14.90;99.90;;;;;;5983936;23;20023;-84
2022/08/26 06:53:52;;;;;;;1.33;1.20;;;15.00;99.90;;;;;;5958722;23;20339;-83
2022/08/26 06:56:41;;;;;;;1.20;1.00;;;15.00;99.90;;;;;;6009247;23;20019;-83
2022/08/26 06:59:24;;;;;;;;;;;;;;;;;;;;;
2022/08/26 07:02:22;;;;;;;1.50;1.33;;;15.00;99.90;;;;;;6117001;23;20013;-83
2022/08/26 07:05:17;;;;;;;1.38;1.15;;;15.00;99.90;;;;;;6115878;23;20025;-84
2022/08/26 07:07:47;;;;;;;;;;;15.10;99.90;;;;;;6095130;23;20101;-82
2022/08/26 07:10:17;;;;;;;1.70;1.30;;;15.20;99.90;;;;;;6114782;23;19981;-83
2022/08/26 07:12:48;;;;;;;1.88;1.65;;;15.20;99.90;;;;;;6092677;23;20516;-82
2022/08/26 07:15:16;;;;;;;1.30;1.15;;;15.20;99.90;;;;;;6089633;23;20091;-81
2022/08/26 07:18:07;;;;;;;1.85;1.48;;;15.30;99.90;;;;;;6090099;23;20027;-87
2022/08/26 07:22:02;;;;;;;;;;;;;;;;;;;;;
2022/08/26 07:24:58;;;;;;;1.35;1.08;;;15.40;99.90;;;;;;6070357;23;20867;-84
2022/08/26 07:28:22;;;;;;;1.70;1.15;;;15.50;99.90;;;;;;6034060;23;20934;-83
2022/08/26 07:31:48;;;;;;;1.90;1.50;;;15.60;99.90;;;;;;6050724;23;20122;-84
2022/08/26 07:41:46;;;;;;;1.67;1.35;;;15.80;99.90;;;;;;5831215;24;20114;-86
2022/08/26 07:44:13;;;;;;;1.17;1.05;;;15.90;99.90;;;;;;5834626;24;20027;-86
2022/08/26 07:46:39;;;;;;;1.30;0.98;;;16.00;99.90;;;;;;5824356;24;20319;-86
2022/08/26 07:49:06;;;;;;;1.65;1.55;;;16.00;99.90;;;;;;5963596;23;20023;-83
2022/08/26 07:51:33;;;;;;;1.88;1.48;;;16.10;99.90;;;;;;6030187;23;20454;-86
2022/08/26 07:54:00;;;;;;;2.80;2.15;;;16.10;99.90;;;;;;6003438;23;20386;-85
2022/08/26 07:56:27;;;;;;;2.22;1.80;;;16.20;99.90;;;;;;6030595;23;20094;-86
2022/08/26 07:58:54;;;;;;;2.10;1.60;;;16.20;99.90;;;;;;6030174;23;20023;-84
2022/08/26 08:01:25;;;;;;;2.15;1.65;;;16.20;99.90;;;;;;6038843;23;20097;-85
2022/08/26 08:03:53;;;;;;;1.98;1.70;;;16.30;99.90;;;;;;6061683;23;20023;-84
2022/08/26 08:06:21;;;;;;;1.92;1.70;;;16.30;99.90;;;;;;6060516;23;20030;-85
2022/08/26 08:08:53;;;;;;;1.60;1.50;;;16.40;99.90;;;;;;6060236;23;20799;-84
2022/08/26 08:11:20;;;;;;;2.42;2.22;;;16.40;99.90;;;;;;6060240;23;20329;-86
2022/08/26 08:13:47;;;;;;;2.20;2.00;;;16.50;99.90;;;;;;6057807;23;20026;-85
2022/08/26 08:16:23;;;;;;;2.15;1.85;;;16.50;99.90;;;;;;6058713;23;20030;-84
2022/08/26 08:18:50;;;;;;;2.33;1.80;;;16.60;99.90;;;;;;6057318;23;20023;-83
2022/08/26 08:21:17;;;;;;;2.78;1.75;;;16.70;99.90;;;;;;6057330;23;20033;-84
2022/08/26 08:23:54;;;;;;;1.60;1.50;;;16.80;99.90;;;;;;6104832;23;20026;-83
2022/08/26 08:26:21;;;;;;;1.55;1.38;;;16.90;99.90;;;;;;6093143;23;20087;-83
2022/08/26 08:28:48;;;;;;;1.67;1.30;;;16.90;99.90;;;;;;6094702;23;20049;-84
2022/08/26 08:31:25;;;;;;;1.55;1.27;;;17.00;99.90;;;;;;6120895;23;20385;-86
2022/08/26 08:34:12;;;;;;;1.25;1.10;;;17.20;99.90;;;;;;6124372;23;20860;-85
2022/08/26 08:36:40;;;;;;;1.48;1.13;;;17.30;99.90;;;;;;6095489;23;20523;-85
2022/08/26 08:39:08;;;;;;;1.35;1.25;;;17.30;99.90;;;;;;6145866;23;20486;-85
2022/08/26 08:41:39;;;;;;;1.48;1.33;;;17.40;99.90;;;;;;6121319;23;20017;-85
2022/08/26 08:44:18;;;;;;;1.10;0.90;;;17.50;99.90;;;;;;6122578;23;20092;-85
2022/08/26 08:46:54;;;;;;;1.90;1.08;;;17.60;99.90;;;;;;6100923;23;20021;-85
2022/08/26 08:49:24;;;;;;;0.90;0.80;;;17.60;99.90;;;;;;6123508;23;20049;-87
2022/08/26 08:52:10;;;;;;;0.70;0.70;;;17.60;99.90;;;;;;6099204;23;20032;-83
2022/08/26 08:54:37;;;;;;;1.10;0.70;;;17.80;99.90;;;;;;6099722;23;20025;-85
2022/08/26 08:57:18;;;;;;;0.80;0.73;;;17.80;99.90;;;;;;6098398;23;20402;-85
2022/08/26 08:59:54;;;;;;;0.95;0.73;;;17.90;99.90;;;;;;6123471;23;20025;-84
2022/08/26 09:02:29;;;;;;;0.70;0.52;;;18.00;99.90;;;;;;6122748;23;20060;-86
2022/08/26 09:05:22;;;;;;;0.77;0.60;;;18.10;99.90;;;;;;6123170;23;20528;-85
2022/08/26 09:08:09;;;;;;;0.40;0.40;;;18.20;99.90;;;;;;6146837;23;20101;-84
2022/08/26 09:10:52;;;;;;;0.82;0.60;;;18.30;99.90;;;;;;6099321;23;20021;-85
2022/08/26 09:13:20;;;;;;;0.77;0.50;;;18.40;99.90;;;;;;6123102;23;20021;-85
2022/08/26 09:16:06;;;;;;;0.82;0.55;;;18.50;99.90;;;;;;6123784;23;20017;-84
2022/08/26 09:18:59;;;;;;;0.50;0.50;;;18.60;99.90;;;;;;6101657;23;20036;-86
2022/08/26 09:21:27;;;;;;;1.13;0.60;;;18.70;99.90;;;;;;6099463;23;20112;-85
2022/08/26 09:23:55;;;;;;;0.65;0.57;;;18.80;99.90;;;;;;6122428;23;20100;-84
2022/08/26 09:26:39;;;;;;;1.27;0.50;;;18.80;99.90;;;;;;6122096;23;20021;-86
2022/08/26 09:29:28;;;;;;;0.70;0.60;;;18.90;99.90;;;;;;6147119;23;20831;-84
2022/08/26 09:32:33;;;;;;;1.98;0.80;;;19.00;99.90;;;;;;6122983;23;20032;-86
2022/08/26 09:35:07;;;;;;;0.70;0.70;;;19.20;99.90;;;;;;6006894;23;20067;-86
2022/08/26 09:37:45;;;;;;;0.60;0.60;;;19.20;99.90;;;;;;6107367;23;20057;-85
2022/08/26 09:40:31;;;;;;;0.80;0.70;;;19.30;99.90;;;;;;6100735;23;20453;-86
2022/08/26 09:43:04;;;;;;;0.80;0.75;;;19.40;99.90;;;;;;6122540;23;20393;-85
2022/08/26 09:45:32;;;;;;;0.60;0.50;;;19.50;99.90;;;;;;6122739;23;20028;-86
2022/08/26 09:47:59;;;;;;;1.00;0.90;;;19.50;99.90;;;;;;6122610;23;20022;-85
2022/08/26 09:50:29;;;;;;;1.15;0.70;;;19.50;99.90;;;;;;6097675;23;20025;-86
2022/08/26 09:53:08;;;;;;;0.75;0.57;;;19.60;99.90;;;;;;6097904;23;20089;-85
2022/08/26 09:55:40;;;;;;;0.70;0.50;;;19.70;99.90;;;;;;6099630;23;20028;-84
2022/08/26 09:58:11;;;;;;;1.02;0.57;;;19.80;99.90;;;;;;6098267;23;20018;-85
2022/08/26 10:00:55;;;;;;;0.70;0.55;;;19.90;99.90;;;;;;6098365;23;20057;-85
2022/08/26 10:03:31;;;;;;;1.65;0.77;;;20.00;99.90;;;;;;6099817;23;20480;-85
2022/08/26 10:06:00;;;;;;;0.50;0.50;;;20.10;99.90;;;;;;6097574;23;20068;-85
2022/08/26 10:08:41;;;;;;;0.77;0.40;;;20.20;99.90;;;;;;6097913;23;20576;-85
2022/08/26 10:11:55;;;;;;;0.32;0.32;;;20.30;99.90;;;;;;6145865;23;20036;-85
2022/08/26 10:14:28;;;;;;;0.85;0.60;;;20.40;99.90;;;;;;5980962;23;20412;-84
2022/08/26 10:17:13;;;;;;;0.52;0.50;;;20.50;99.90;;;;;;6085687;23;20045;-84
2022/08/26 10:19:43;;;;;;;0.95;0.60;;;20.60;99.90;;;;;;6098385;23;20013;-84
2022/08/26 10:22:24;;;;;;;1.13;0.70;;;20.60;99.90;;;;;;6102582;23;20049;-85
2022/08/26 10:24:56;;;;;;;0.90;0.57;;;20.60;99.90;;;;;;6143876;23;20022;-84
2022/08/26 10:27:32;;;;;;;0.82;0.50;;;20.70;99.90;;;;;;6095242;23;20026;-85
2022/08/26 10:30:05;;;;;;;1.73;0.60;;;20.70;99.90;;;;;;6145896;23;20024;-85
2022/08/26 10:32:36;;;;;;;0.82;0.50;;;20.80;99.90;;;;;;6120814;23;20025;-84
2022/08/26 10:35:09;;;;;;;1.73;0.98;;;20.90;99.90;;;;;;6122301;23;20025;-86
2022/08/26 10:37:45;;;;;;;1.55;0.80;;;20.90;99.90;;;;;;6120926;23;20052;-85
2022/08/26 10:40:28;;;;;;;0.60;0.60;;;20.90;99.90;;;;;;6098879;23;20029;-85
2022/08/26 10:43:07;;;;;;;1.38;0.70;;;21.00;99.90;;;;;;6144955;23;20583;-85
2022/08/26 10:45:49;;;;;;;1.33;0.90;;;21.00;99.90;;;;;;6100152;23;20018;-86
2022/08/26 10:48:27;;;;;;;1.58;0.82;;;21.20;99.90;;;;;;6097024;23;20547;-84
2022/08/26 10:51:02;;;;;;;0.80;0.50;;;21.30;99.90;;;;;;6101225;23;20053;-86
2022/08/26 10:53:49;;;;;;;0.52;0.50;;;21.50;99.90;;;;;;6097136;23;20026;-85
2022/08/26 10:56:35;;;;;;;0.60;0.40;;;21.60;99.90;;;;;;6101079;23;20018;-85
2022/08/26 10:59:13;;;;;;;0.60;0.50;;;21.60;99.90;;;;;;6146204;23;20060;-86
2022/08/26 11:01:52;;;;;;;0.52;0.40;;;21.70;99.90;;;;;;6120957;23;20512;-86
2022/08/26 11:04:46;;;;;;;0.82;0.55;;;21.90;99.90;;;;;;6097301;23;20021;-84
2022/08/26 11:07:30;;;;;;;1.98;0.90;;;22.10;99.90;;;;;;6146137;23;20024;-84
2022/08/26 11:10:04;;;;;;;1.15;0.80;;;22.20;99.90;;;;;;6121141;23;20025;-85
2022/08/26 11:12:35;;;;;;;0.50;0.50;;;22.20;99.90;;;;;;6121186;23;20021;-85
2022/08/26 11:15:10;;;;;;;0.93;0.50;;;22.20;99.90;;;;;;6147043;23;20022;-85
2022/08/26 11:17:45;;;;;;;0.90;0.60;;;22.40;99.90;;;;;;6102879;23;20037;-86
2022/08/26 11:20:21;;;;;;;0.80;0.60;;;22.60;99.90;;;;;;6151194;23;20021;-85
2022/08/26 11:22:49;;;;;;;1.15;0.60;;;22.50;99.90;;;;;;6148667;23;20025;-86
2022/08/26 11:25:18;;;;;;;1.50;0.80;;;22.60;99.90;;;;;;6097038;23;20117;-85
2022/08/26 11:27:48;;;;;;;0.77;0.50;;;22.60;99.90;;;;;;6095795;23;20084;-86
2022/08/26 11:30:15;;;;;;;0.75;0.50;;;22.60;99.90;;;;;;6144659;23;20018;-86
2022/08/26 11:32:50;;;;;;;0.70;0.50;;;22.70;99.90;;;;;;6140320;23;20548;-82
2022/08/26 11:35:19;;;;;;;0.45;0.45;;;22.70;99.90;;;;;;6091029;23;20522;-82
2022/08/26 11:37:56;;;;;;;1.77;0.82;;;22.70;99.90;;;;;;6139669;23;20021;-83
2022/08/26 11:41:37;;;;;;;;;;;;;;;;;;;;;
2022/08/26 11:44:09;;;;;;;0.47;0.45;;;22.60;99.90;;;;;;6138291;23;20688;-83
2022/08/26 12:05:26;;;;;;;1.07;0.80;;;24.90;99.90;;;;;;6169066;23;20040;-80
2022/08/26 12:11:43;;;;;;;0.70;0.40;;;25.70;99.90;;;;;;6158926;23;20047;-84
2022/08/26 12:14:23;;;;;;;0.60;0.40;;;25.50;99.20;;;;;;6124124;23;20108;-84
2022/08/26 12:16:50;;;;;;;0.32;0.30;;;25.70;98.30;;;;;;6099975;23;20811;-82
2022/08/26 12:19:25;;;;;;;0.30;0.30;;;25.70;98.40;;;;;;6098185;23;20282;-82
2022/08/26 12:21:58;;;;;;;1.05;0.50;;;25.40;97.80;;;;;;6099001;23;20071;-82
2022/08/26 12:24:30;;;;;;;0.67;0.53;;;25.00;98.10;;;;;;6099304;23;20402;-79
2022/08/26 12:27:16;;;;;;;0.50;0.40;;;24.90;97.70;;;;;;6124751;23;20032;-81
2022/08/26 12:29:43;;;;;;;2.00;0.60;;;25.30;97.60;;;;;;6126817;23;20639;-85
2022/08/26 12:32:16;;;;;;;0.77;0.50;;;25.80;96.30;;;;;;6102046;23;20108;-83
2022/08/26 12:34:44;;;;;;;1.05;0.70;;;26.30;96.20;;;;;;6099837;23;20075;-84
2022/08/26 12:37:11;;;;;;;0.70;0.70;;;26.80;95.20;;;;;;6123438;23;20379;-84
2022/08/26 12:39:40;;;;;;;0.60;0.50;;;27.40;95.20;;;;;;6098550;23;20029;-83
2022/08/26 12:42:14;;;;;;;0.43;0.43;;;28.00;92.90;;;;;;6095835;23;20017;-84
2022/08/26 12:44:45;;;;;;;0.70;0.60;;;28.40;93.40;;;;;;6148479;23;20079;-83
2022/08/26 12:47:30;;;;;;;0.40;0.40;;;29.10;92.20;;;;;;6125813;23;20456;-84
2022/08/26 12:50:23;;;;;;;0.60;0.60;;;29.60;90.40;;;;;;6150266;23;20029;-81
2022/08/26 12:52:56;;;;;;;0.60;0.50;;;29.70;89.80;;;;;;6123618;23;20067;-81
2022/08/26 12:55:44;;;;;;;1.05;0.73;;;30.10;90.20;;;;;;6100144;23;20632;-84
2022/08/26 12:58:14;;;;;;;0.30;0.30;;;30.60;89.80;;;;;;6126892;23;20025;-82
2022/08/26 13:00:42;;;;;;;0.40;0.40;;;31.40;87.00;;;;;;6148155;23;20029;-82
2022/08/26 13:03:28;;;;;;;0.40;0.40;;;31.70;86.00;;;;;;6098228;23;20021;-82
2022/08/26 13:06:30;;;;;;;1.73;0.60;;;32.30;87.80;;;;;;6147050;23;20036;-81
2022/08/26 13:09:01;;;;;;;0.40;0.40;;;32.80;80.40;;;;;;6148310;23;20021;-82
2022/08/26 13:11:31;;;;;;;0.65;0.52;;;33.00;79.50;;;;;;6122940;23;20075;-81
2022/08/26 13:14:02;;;;;;;0.40;0.40;;;32.90;78.60;;;;;;6124560;23;20064;-83
2022/08/26 13:16:33;;;;;;;1.38;0.50;;;33.20;78.00;;;;;;6148234;23;20018;-81
2022/08/26 13:19:02;;;;;;;0.77;0.45;;;33.10;76.00;;;;;;6098642;23;20032;-82
2022/08/26 13:21:31;;;;;;;0.70;0.50;;;32.90;78.10;;;;;;6100518;23;20017;-82
2022/08/26 13:24:31;;;;;;;0.50;0.50;;;33.10;76.10;;;;;;6103786;23;20108;-82
2022/08/26 13:26:58;;;;;;;0.40;0.40;;;33.40;76.60;;;;;;6093749;23;20400;-83
2022/08/26 13:29:24;;;;;;;0.40;0.40;;;33.50;76.70;;;;;;6125777;23;20036;-83
2022/08/26 13:31:51;;;;;;;0.52;0.47;;;33.90;75.70;;;;;;6101238;23;20057;-81
2022/08/26 13:34:20;;;;;;;0.55;0.47;;;33.90;74.10;;;;;;6101341;23;20060;-84
2022/08/26 13:36:48;;;;;;;0.65;0.52;;;33.70;73.70;;;;;;6100768;23;20029;-81
2022/08/26 13:39:16;;;;;;;0.57;0.52;;;33.60;74.70;;;;;;6101052;23;20021;-81
2022/08/26 13:41:43;;;;;;;1.98;0.80;;;33.40;71.80;;;;;;6124669;23;20028;-82
2022/08/26 13:44:10;;;;;;;2.13;0.60;;;32.90;72.40;;;;;;6100566;23;20024;-82
2022/08/26 13:46:36;;;;;;;1.25;0.80;;;32.30;72.80;;;;;;6101202;23;20048;-81
2022/08/26 13:49:04;;;;;;;1.45;0.65;;;32.10;74.20;;;;;;6101824;23;20029;-82
2022/08/26 13:51:30;;;;;;;0.75;0.60;;;32.30;74.10;;;;;;6100463;23;20021;-82
2022/08/26 13:53:58;;;;;;;0.57;0.35;;;32.30;73.80;;;;;;6101360;23;20021;-79
2022/08/26 13:56:26;;;;;;;0.35;0.35;;;31.80;74.20;;;;;;6123989;23;20107;-82
2022/08/26 13:58:53;;;;;;;0.93;0.57;;;31.30;74.50;;;;;;6101540;23;20033;-79
2022/08/26 14:01:20;;;;;;;0.32;0.30;;;30.70;74.60;;;;;;6123596;23;20323;-81
2022/08/26 14:03:46;;;;;;;0.82;0.40;;;30.10;74.80;;;;;;6131962;23;20459;-80
2022/08/26 14:06:14;;;;;;;0.77;0.40;;;29.60;77.00;;;;;;6173210;23;20031;-81
2022/08/26 14:08:41;;;;;;;0.95;0.47;;;28.80;76.90;;;;;;6148754;23;20511;-81
2022/08/26 14:11:08;;;;;;;0.30;0.20;;;28.60;77.60;;;;;;6149408;23;20087;-81
2022/08/26 14:13:35;;;;;;;0.63;0.30;;;28.50;77.70;;;;;;6173571;23;20013;-80
2022/08/26 14:16:03;;;;;;;0.20;0.20;;;28.60;77.30;;;;;;6173285;23;20017;-84
2022/08/26 14:18:32;;;;;;;0.88;0.40;;;28.20;76.80;;;;;;6148728;23;20463;-82
2022/08/26 14:20:59;;;;;;;0.68;0.60;;;28.00;77.90;;;;;;6148929;23;20033;-82
2022/08/26 14:23:26;;;;;;;0.68;0.52;;;27.90;78.80;;;;;;6148294;23;20021;-81
2022/08/26 14:25:53;;;;;;;0.50;0.50;;;27.70;78.10;;;;;;6173900;23;20029;-81
2022/08/26 14:28:21;;;;;;;0.68;0.60;;;28.60;77.60;;;;;;6149431;23;20021;-82
2022/08/26 14:30:53;;;;;;;0.70;0.50;;;29.20;76.70;;;;;;6150025;23;20059;-81